createdAt,value
2019-02-12T00:00:14.567Z,0.53
2019-02-12T00:02:43.149Z,0.30
2019-02-12T00:05:12.635Z,0.33
2019-02-12T00:07:41.383Z,0.60
2019-02-12T00:10:10.094Z,0.30
2019-02-12T00:12:38.866Z,0.33
2019-02-12T00:15:07.883Z,0.60
2019-02-12T00:17:36.447Z,0.57
2019-02-12T00:20:06.462Z,0.30
2019-02-12T00:22:35.133Z,0.50
2019-02-12T00:25:04.670Z,0.50
2019-02-12T00:27:33.249Z,0.50
2019-02-12T00:30:01.826Z,0.40
2019-02-12T00:32:30.398Z,0.80
2019-02-12T00:34:59.030Z,0.23
2019-02-12T00:37:27.617Z,0.60
2019-02-12T00:39:56.178Z,0.40
2019-02-12T00:42:24.757Z,0.40
2019-02-12T00:44:53.326Z,0.43
2019-02-12T00:47:21.902Z,0.60
2019-02-12T00:49:50.481Z,0.50
2019-02-12T00:52:19.057Z,0.50
2019-02-12T00:54:47.627Z,0.50
2019-02-12T00:57:18.177Z,0.30
2019-02-12T00:59:46.446Z,0.40
2019-02-12T01:02:15.011Z,0.50
2019-02-12T01:04:43.594Z,0.40
2019-02-12T01:07:12.234Z,0.50
2019-02-12T01:09:40.814Z,0.43
2019-02-12T01:12:09.384Z,0.70
2019-02-12T01:14:37.957Z,0.30
2019-02-12T01:17:06.535Z,0.40
2019-02-12T01:19:35.189Z,0.70
2019-02-12T01:22:03.894Z,0.47
2019-02-12T01:24:32.464Z,0.50
2019-02-12T01:27:01.037Z,0.30
2019-02-12T01:29:29.607Z,0.40
2019-02-12T01:31:58.190Z,0.33
2019-02-12T01:34:26.758Z,0.30
2019-02-12T01:36:55.339Z,0.30
2019-02-12T01:39:23.906Z,0.50
2019-02-12T01:41:52.490Z,0.40
2019-02-12T01:44:21.057Z,0.40
2019-02-12T01:46:49.646Z,0.40
2019-02-12T01:49:18.218Z,0.30
2019-02-12T01:51:47.286Z,0.30
2019-02-12T01:54:15.866Z,0.40
2019-02-12T01:56:44.434Z,0.30
2019-02-12T01:59:13.025Z,0.30
2019-02-12T02:01:41.597Z,0.40
2019-02-12T02:04:10.242Z,0.40
2019-02-12T02:06:38.817Z,0.30
2019-02-12T02:09:07.601Z,0.40
2019-02-12T02:11:36.241Z,0.30
2019-02-12T02:14:04.978Z,0.30
2019-02-12T02:16:33.618Z,0.40
2019-02-12T02:19:02.186Z,0.40
2019-02-12T02:21:30.838Z,0.50
2019-02-12T02:23:59.474Z,0.30
2019-02-12T02:26:28.050Z,0.67
2019-02-12T02:28:56.629Z,0.40
2019-02-12T02:31:25.217Z,0.30
2019-02-12T02:33:53.785Z,0.40
2019-02-12T02:36:22.395Z,0.40
2019-02-12T02:38:50.963Z,0.30
2019-02-12T02:41:19.681Z,0.40
2019-02-12T02:43:49.236Z,0.37
2019-02-12T02:46:17.802Z,0.30
2019-02-12T02:48:46.370Z,0.40
2019-02-12T02:51:14.994Z,0.30
2019-02-12T02:53:43.577Z,0.40
2019-02-12T02:56:12.166Z,0.40
2019-02-12T02:58:40.819Z,0.50
2019-02-12T03:01:09.393Z,0.33
2019-02-12T03:03:37.965Z,0.77
2019-02-12T03:06:06.548Z,0.40
2019-02-12T03:08:35.117Z,0.60
2019-02-12T03:11:03.695Z,0.30
2019-02-12T03:13:32.330Z,0.40
2019-02-12T03:16:00.921Z,0.40
2019-02-12T03:18:29.502Z,0.37
2019-02-12T03:20:58.082Z,0.40
2019-02-12T03:23:26.664Z,0.30
2019-02-12T03:25:55.230Z,0.40
2019-02-12T03:28:23.811Z,0.30
2019-02-12T03:30:52.384Z,0.40
2019-02-12T03:33:20.978Z,0.40
2019-02-12T03:35:49.546Z,0.40
2019-02-12T03:38:18.124Z,0.40
2019-02-12T03:40:46.696Z,0.40
2019-02-12T03:43:15.333Z,0.50
2019-02-12T03:45:43.906Z,0.40
2019-02-12T03:48:12.479Z,0.30
2019-02-12T03:50:41.059Z,0.30
2019-02-12T03:53:09.626Z,0.30
2019-02-12T03:55:38.218Z,0.50
2019-02-12T03:58:06.849Z,0.30
2019-02-12T04:00:35.670Z,0.40
2019-02-12T04:03:06.027Z,0.30
2019-02-12T04:05:35.945Z,0.37
2019-02-12T04:08:05.040Z,0.47
2019-02-12T04:10:33.602Z,0.30
2019-02-12T04:13:02.295Z,0.40
2019-02-12T04:15:31.025Z,0.50
2019-02-12T04:17:59.746Z,0.40
2019-02-12T04:20:28.317Z,0.20
2019-02-12T04:22:56.966Z,0.40
2019-02-12T04:25:25.527Z,0.43
2019-02-12T04:27:55.549Z,0.60
2019-02-12T04:30:24.458Z,0.40
2019-02-12T04:32:53.030Z,0.33
2019-02-12T04:35:21.612Z,0.50
2019-02-12T04:37:50.183Z,0.50
2019-02-12T04:40:18.762Z,0.20
2019-02-12T04:42:47.329Z,0.43
2019-02-12T04:45:15.910Z,0.33
2019-02-12T04:47:44.477Z,0.50
2019-02-12T04:50:14.727Z,0.50
2019-02-12T04:52:43.473Z,0.30
2019-02-12T04:55:12.779Z,0.43
2019-02-12T04:57:41.497Z,0.27
2019-02-12T05:00:13.070Z,0.30
2019-02-12T05:02:41.744Z,0.50
2019-02-12T05:05:10.947Z,0.40
2019-02-12T05:07:39.711Z,0.40
2019-02-12T05:10:27.531Z,0.50
2019-02-12T05:12:56.110Z,0.30
2019-02-12T05:15:24.920Z,0.40
2019-02-12T05:17:54.067Z,0.40
2019-02-12T05:20:22.982Z,0.30
2019-02-12T05:22:51.696Z,0.40
2019-02-12T05:25:20.422Z,0.50
2019-02-12T05:27:49.054Z,0.70
2019-02-12T05:30:17.703Z,0.40
2019-02-12T05:32:46.274Z,0.50
2019-02-12T05:35:14.878Z,0.47
2019-02-12T05:37:43.483Z,0.37
2019-02-12T05:40:12.366Z,0.60
2019-02-12T05:42:40.942Z,0.40
2019-02-12T05:45:13.462Z,0.50
2019-02-12T05:47:42.179Z,0.30
2019-02-12T05:50:15.105Z,0.70
2019-02-12T05:52:53.365Z,0.60
2019-02-12T05:55:14.030Z,0.53
2019-02-12T05:57:43.764Z,0.47
2019-02-12T06:00:18.883Z,0.97
2019-02-12T06:02:47.722Z,0.63
2019-02-12T06:05:25.076Z,0.40
2019-02-12T06:07:53.898Z,0.70
2019-02-12T06:10:23.206Z,0.77
2019-02-12T06:12:52.038Z,0.50
2019-02-12T06:15:20.733Z,0.33
2019-02-12T06:17:50.162Z,0.60
2019-02-12T06:20:18.691Z,0.57
2019-02-12T06:22:47.254Z,0.50
2019-02-12T06:25:15.840Z,0.50
2019-02-12T06:27:44.407Z,0.73
2019-02-12T06:30:13.230Z,0.50
2019-02-12T06:32:41.856Z,0.70
2019-02-12T06:35:10.553Z,0.60
2019-02-12T06:37:39.202Z,0.50
2019-02-12T06:40:10.319Z,0.67
2019-02-12T06:42:39.030Z,0.40
2019-02-12T06:45:14.942Z,1.00
2019-02-12T06:47:43.557Z,0.70
2019-02-12T06:50:14.802Z,0.60
2019-02-12T06:52:43.385Z,0.70
2019-02-12T06:55:12.297Z,0.53
2019-02-12T06:57:40.878Z,0.50
2019-02-12T07:00:15.926Z,0.50
2019-02-12T07:03:16.642Z,0.70
2019-02-12T07:06:09.205Z,0.50
2019-02-12T07:08:46.570Z,0.60
2019-02-12T07:11:30.303Z,0.50
2019-02-12T07:14:31.732Z,0.30
2019-02-12T07:17:30.303Z,0.40
2019-02-12T07:20:07.773Z,0.43
2019-02-12T07:22:57.501Z,0.50
2019-02-12T07:25:41.091Z,0.57
2019-02-12T07:28:15.315Z,0.47
2019-02-12T07:31:14.086Z,0.50
2019-02-12T07:34:02.718Z,1.13
2019-02-12T07:37:03.319Z,0.60
2019-02-12T07:39:37.558Z,0.47
2019-02-12T07:42:17.940Z,0.80
2019-02-12T07:45:23.034Z,0.50
2019-02-12T07:48:15.374Z,0.40
2019-02-12T07:50:55.550Z,0.50
2019-02-12T07:53:31.441Z,0.30
2019-02-12T07:56:18.578Z,0.40
2019-02-12T07:58:55.948Z,0.50
2019-02-12T08:01:51.582Z,0.30
2019-02-12T08:04:39.622Z,0.40
2019-02-12T08:07:44.519Z,0.40
2019-02-12T08:10:18.966Z,0.30
2019-02-12T08:13:10.288Z,0.40
2019-02-12T08:15:47.966Z,0.40
2019-02-12T08:18:37.952Z,0.87
2019-02-12T08:21:09.610Z,0.80
2019-02-12T08:23:50.332Z,1.13
2019-02-12T08:26:30.842Z,0.80
2019-02-12T08:29:11.421Z,1.03
2019-02-12T08:32:15.014Z,0.60
2019-02-12T08:35:03.159Z,1.00
2019-02-12T08:37:46.862Z,0.80
2019-02-12T08:40:51.690Z,1.10
2019-02-12T08:43:29.218Z,0.95
2019-02-12T08:46:24.780Z,0.80
2019-02-12T08:49:02.350Z,0.90
2019-02-12T08:51:42.605Z,1.00
2019-02-12T08:54:32.346Z,0.90
2019-02-12T08:57:09.442Z,1.00
2019-02-12T08:59:47.178Z,1.20
2019-02-12T09:02:30.393Z,0.90
2019-02-12T09:05:08.058Z,0.80
2019-02-12T09:07:39.794Z,0.80
2019-02-12T09:10:29.340Z,0.80
2019-02-12T09:13:12.523Z,0.70
2019-02-12T09:16:06.892Z,0.50
2019-02-12T09:19:12.172Z,0.67
2019-02-12T09:22:05.005Z,0.40
2019-02-12T09:24:51.422Z,0.40
2019-02-12T09:27:25.933Z,0.50
2019-02-12T09:30:19.810Z,0.43
2019-02-12T09:32:57.237Z,0.60
2019-02-12T09:35:53.154Z,0.70
2019-02-12T09:38:47.527Z,0.50
2019-02-12T09:41:21.830Z,0.50
2019-02-12T09:44:14.958Z,0.40
2019-02-12T09:47:04.678Z,0.50
2019-02-12T09:49:54.250Z,0.40
2019-02-12T09:52:42.371Z,0.53
2019-02-12T09:55:26.030Z,0.43
2019-02-12T09:57:57.670Z,0.50
2019-02-12T10:00:31.963Z,0.50
2019-02-12T10:03:20.006Z,0.50
2019-02-12T10:05:57.566Z,0.30
2019-02-12T10:08:37.975Z,0.63
2019-02-12T10:11:26.094Z,0.30
2019-02-12T10:13:57.747Z,0.40
2019-02-12T10:16:41.158Z,0.33
2019-02-12T10:19:12.802Z,0.40
2019-02-12T10:21:44.462Z,0.30
2019-02-12T10:24:31.182Z,0.47
2019-02-12T10:27:21.139Z,0.40
2019-02-12T10:30:16.866Z,0.50
2019-02-12T10:32:45.474Z,0.40
2019-02-12T10:35:14.279Z,0.40
2019-02-12T10:37:42.846Z,0.50
2019-02-12T10:40:11.494Z,0.40
2019-02-12T10:42:40.058Z,0.40
2019-02-12T10:45:09.270Z,0.53
2019-02-12T10:47:37.882Z,0.40
2019-02-12T10:50:08.403Z,0.50
2019-02-12T10:52:36.962Z,0.50
2019-02-12T10:55:06.478Z,0.40
2019-02-12T10:57:35.042Z,0.30
2019-02-12T11:00:05.739Z,0.40
2019-02-12T11:02:34.314Z,0.60
2019-02-12T11:05:02.953Z,0.80
2019-02-12T11:07:31.591Z,0.43
2019-02-12T11:10:00.256Z,0.43
2019-02-12T11:12:29.011Z,0.40
2019-02-12T11:14:57.586Z,0.50
2019-02-12T11:17:26.230Z,0.30
2019-02-12T11:19:54.868Z,0.50
2019-02-12T11:22:23.614Z,0.40
2019-02-12T11:24:52.182Z,0.50
2019-02-12T11:27:20.766Z,0.40
2019-02-12T11:29:49.337Z,0.40
2019-02-12T11:32:17.914Z,0.57
2019-02-12T11:34:46.624Z,0.30
2019-02-12T11:37:15.186Z,0.37
2019-02-12T11:39:43.764Z,0.30
2019-02-12T11:42:12.354Z,0.50
2019-02-12T11:44:40.930Z,0.40
2019-02-12T11:47:09.502Z,0.30
2019-02-12T11:49:38.090Z,0.20
2019-02-12T11:52:06.805Z,0.30
2019-02-12T11:54:35.370Z,0.40
2019-02-12T11:57:03.950Z,0.40
2019-02-12T11:59:32.787Z,0.37
2019-02-12T12:02:01.437Z,0.33
2019-02-12T12:04:30.063Z,0.37
2019-02-12T12:06:58.637Z,0.30
2019-02-12T12:09:27.202Z,0.20
2019-02-12T12:11:55.807Z,0.30
2019-02-12T12:14:24.370Z,0.43
2019-02-12T12:16:52.937Z,0.23
2019-02-12T12:19:21.515Z,0.33
2019-02-12T12:21:50.150Z,0.20
2019-02-12T12:24:18.731Z,0.20
2019-02-12T12:26:47.297Z,0.60
2019-02-12T12:29:15.866Z,0.30
2019-02-12T12:31:44.442Z,0.30
2019-02-12T12:34:32.358Z,0.40
2019-02-12T12:37:01.054Z,0.47
2019-02-12T12:39:29.658Z,0.33
2019-02-12T12:41:58.218Z,0.30
2019-02-12T12:44:26.792Z,0.30
2019-02-12T12:46:55.362Z,0.30
2019-02-12T12:49:23.927Z,0.33
2019-02-12T12:51:52.505Z,0.30
2019-02-12T12:54:21.071Z,0.40
2019-02-12T12:56:49.651Z,0.30
2019-02-12T12:59:18.218Z,0.30
2019-02-12T13:01:46.782Z,0.30
2019-02-12T13:04:15.361Z,0.27
2019-02-12T13:06:43.926Z,0.33
2019-02-12T13:09:12.502Z,0.37
2019-02-12T13:11:41.066Z,0.30
2019-02-12T13:14:09.658Z,0.30
2019-02-12T13:16:38.222Z,0.30
2019-02-12T13:19:08.394Z,0.40
2019-02-12T13:21:37.082Z,0.30
2019-02-12T13:24:05.739Z,0.30
2019-02-12T13:26:34.314Z,0.20
2019-02-12T13:29:02.955Z,0.30
2019-02-12T13:31:31.526Z,0.40
2019-02-12T13:34:00.158Z,0.40
2019-02-12T13:36:28.802Z,0.30
2019-02-12T13:38:57.375Z,0.27
2019-02-12T13:41:25.946Z,0.40
2019-02-12T13:43:54.519Z,0.30
2019-02-12T13:46:23.106Z,0.30
2019-02-12T13:48:51.684Z,0.40
2019-02-12T13:51:20.317Z,0.27
2019-02-12T13:53:49.074Z,0.30
2019-02-12T13:56:17.707Z,0.30
2019-02-12T13:58:46.296Z,0.40
2019-02-12T14:01:14.854Z,0.23
2019-02-12T14:03:43.450Z,0.30
2019-02-12T14:06:12.115Z,0.30
2019-02-12T14:08:40.709Z,0.30
2019-02-12T14:11:09.282Z,0.40
2019-02-12T14:13:37.850Z,0.37
2019-02-12T14:16:06.499Z,0.40
2019-02-12T14:18:35.062Z,0.40
2019-02-12T14:21:03.638Z,0.50
2019-02-12T14:23:32.214Z,0.37
2019-02-12T14:26:00.862Z,0.50
2019-02-12T14:28:29.426Z,0.50
2019-02-12T14:30:58.082Z,0.50
2019-02-12T14:33:26.663Z,0.70
2019-02-12T14:35:55.226Z,0.57
2019-02-12T14:38:23.802Z,0.47
2019-02-12T14:40:52.371Z,0.70
2019-02-12T14:43:20.947Z,0.43
2019-02-12T14:45:49.509Z,0.60
2019-02-12T14:48:18.090Z,0.50
2019-02-12T14:50:46.651Z,0.73
2019-02-12T14:53:15.239Z,0.50
2019-02-12T14:55:43.896Z,0.47
2019-02-12T14:58:12.458Z,0.70
2019-02-12T15:00:41.310Z,0.63
2019-02-12T15:03:09.871Z,0.50
2019-02-12T15:05:38.550Z,0.50
2019-02-12T15:08:07.115Z,0.30
2019-02-12T15:10:35.713Z,0.40
2019-02-12T15:13:04.270Z,0.33
2019-02-12T15:15:32.914Z,0.50
2019-02-12T15:18:01.588Z,0.60
2019-02-12T15:20:30.197Z,0.57
2019-02-12T15:22:58.892Z,0.70
2019-02-12T15:25:27.523Z,0.50
2019-02-12T15:27:56.098Z,0.50
2019-02-12T15:30:24.664Z,0.73
2019-02-12T15:32:53.306Z,0.47
2019-02-12T15:35:21.890Z,0.60
2019-02-12T15:37:50.474Z,0.50
2019-02-12T15:40:20.377Z,0.60
2019-02-12T15:42:50.906Z,0.50
2019-02-12T15:45:21.774Z,0.60
2019-02-12T15:47:50.439Z,0.50
2019-02-12T15:50:19.139Z,0.40
2019-02-12T15:52:47.646Z,0.70
2019-02-12T15:55:16.292Z,0.50
2019-02-12T15:57:45.902Z,0.50
2019-02-12T16:00:20.586Z,0.50
2019-02-12T16:02:49.482Z,0.50
2019-02-12T16:05:18.618Z,0.60
2019-02-12T16:07:47.710Z,0.50
2019-02-12T16:10:21.113Z,0.47
2019-02-12T16:12:51.493Z,0.50
2019-02-12T16:15:22.433Z,0.70
2019-02-12T16:17:50.862Z,0.60
2019-02-12T16:20:19.582Z,0.40
2019-02-12T16:22:48.162Z,0.50
2019-02-12T16:25:16.726Z,0.60
2019-02-12T16:27:45.308Z,0.50
2019-02-12T16:30:21.616Z,0.60
2019-02-12T16:32:50.198Z,0.50
2019-02-12T16:35:19.157Z,0.40
2019-02-12T16:37:47.919Z,1.43
2019-02-12T16:40:17.622Z,1.30
2019-02-12T16:42:46.275Z,0.93
2019-02-12T16:45:23.821Z,0.60
2019-02-12T16:47:52.388Z,0.43
2019-02-12T16:50:21.022Z,1.00
2019-02-12T16:52:49.586Z,0.67
2019-02-12T16:55:18.242Z,0.80
2019-02-12T16:57:46.858Z,0.33
2019-02-12T17:00:19.584Z,0.60
2019-02-12T17:02:49.174Z,0.50
2019-02-12T17:05:18.415Z,0.50
2019-02-12T17:07:47.126Z,0.33
2019-02-12T17:10:15.932Z,0.40
2019-02-12T17:12:44.634Z,0.40
2019-02-12T17:15:13.939Z,0.40
2019-02-12T17:17:42.666Z,0.30
2019-02-12T17:20:19.042Z,0.37
2019-02-12T17:22:47.958Z,0.47
2019-02-12T17:25:16.623Z,0.43
2019-02-12T17:27:45.193Z,0.60
2019-02-12T17:30:16.185Z,0.70
2019-02-12T17:32:44.753Z,0.50
2019-02-12T17:35:13.330Z,0.60
2019-02-12T17:37:41.978Z,0.60
2019-02-12T17:40:12.796Z,0.70
2019-02-12T17:42:41.514Z,0.60
2019-02-12T17:45:14.841Z,0.70
2019-02-12T17:47:43.532Z,0.70
2019-02-12T17:50:15.607Z,0.50
2019-02-12T17:52:44.255Z,0.53
2019-02-12T17:55:13.054Z,0.53
2019-02-12T17:57:41.703Z,0.47
2019-02-12T18:00:17.123Z,0.50
2019-02-12T18:02:45.876Z,1.60
2019-02-12T18:05:14.702Z,0.63
2019-02-12T18:07:43.421Z,0.50
2019-02-12T18:10:12.631Z,1.20
2019-02-12T18:12:41.354Z,0.70
2019-02-12T18:15:11.869Z,0.83
2019-02-12T18:17:40.510Z,1.00
2019-02-12T18:20:13.800Z,0.63
2019-02-12T18:22:42.491Z,1.20
2019-02-12T18:25:11.504Z,4.53
2019-02-12T18:27:41.007Z,2.10
2019-02-12T18:30:17.214Z,1.87
2019-02-12T18:32:45.938Z,0.83
2019-02-12T18:35:14.764Z,0.93
2019-02-12T18:37:43.410Z,0.63
2019-02-12T18:40:17.022Z,0.57
2019-02-12T18:42:45.727Z,0.30
2019-02-12T18:45:25.515Z,0.70
2019-02-12T18:47:54.207Z,0.90
2019-02-12T18:50:22.837Z,0.73
2019-02-12T18:52:51.410Z,0.30
2019-02-12T18:55:19.974Z,0.40
2019-02-12T18:57:48.622Z,0.37
2019-02-12T19:00:21.142Z,0.40
2019-02-12T19:02:49.872Z,0.50
2019-02-12T19:05:18.438Z,0.50
2019-02-12T19:07:47.144Z,0.40
2019-02-12T19:10:17.163Z,0.50
2019-02-12T19:12:45.798Z,0.50
2019-02-12T19:15:19.829Z,0.60
2019-02-12T19:17:51.810Z,0.60
2019-02-12T19:20:20.458Z,0.40
2019-02-12T19:22:49.094Z,0.57
2019-02-12T19:25:17.673Z,0.30
2019-02-12T19:27:46.235Z,0.90
2019-02-12T19:30:16.426Z,0.60
2019-02-12T19:32:45.080Z,0.50
2019-02-12T19:35:13.717Z,0.70
2019-02-12T19:37:42.424Z,0.50
2019-02-12T19:40:12.132Z,0.43
2019-02-12T19:42:40.776Z,0.57
2019-02-12T19:45:14.842Z,0.43
2019-02-12T19:47:43.562Z,0.40
2019-02-12T19:50:12.667Z,0.70
2019-02-12T19:52:41.254Z,0.50
2019-02-12T19:55:10.658Z,0.30
2019-02-12T19:57:39.257Z,0.70
2019-02-12T20:00:27.218Z,0.60
2019-02-12T20:02:55.854Z,0.60
2019-02-12T20:05:24.430Z,0.57
2019-02-12T20:07:52.999Z,0.40
2019-02-12T20:10:21.574Z,0.60
2019-02-12T20:12:50.154Z,0.60
2019-02-12T20:15:20.935Z,0.60
2019-02-12T20:17:49.570Z,0.53
2019-02-12T20:20:18.614Z,0.40
2019-02-12T20:22:47.183Z,0.70
2019-02-12T20:25:15.753Z,0.60
2019-02-12T20:27:44.329Z,0.77
2019-02-12T20:30:20.626Z,0.60
2019-02-12T20:32:49.212Z,0.50
2019-02-12T20:35:21.982Z,0.50
2019-02-12T20:37:50.830Z,0.60
2019-02-12T20:40:19.464Z,0.60
2019-02-12T20:42:48.134Z,0.33
2019-02-12T20:45:18.039Z,0.63
2019-02-12T20:47:46.672Z,0.60
2019-02-12T20:50:21.910Z,0.60
2019-02-12T20:52:50.566Z,0.40
2019-02-12T20:55:20.110Z,0.50
2019-02-12T20:57:48.746Z,0.50
2019-02-12T21:00:22.538Z,0.83
2019-02-12T21:02:51.103Z,0.67
2019-02-12T21:05:19.746Z,1.00
2019-02-12T21:07:48.382Z,0.53
2019-02-12T21:10:20.926Z,0.77
2019-02-12T21:12:49.570Z,0.60
2019-02-12T21:15:24.198Z,0.90
2019-02-12T21:17:52.774Z,0.83
2019-02-12T21:20:21.340Z,0.53
2019-02-12T21:22:49.914Z,0.70
2019-02-12T21:25:18.618Z,0.80
2019-02-12T21:27:47.226Z,0.70
2019-02-12T21:30:23.813Z,0.93
2019-02-12T21:32:52.390Z,1.00
2019-02-12T21:35:21.036Z,1.10
2019-02-12T21:37:49.671Z,0.97
2019-02-12T21:40:25.854Z,0.90
2019-02-12T21:42:54.497Z,0.90
2019-02-12T21:45:23.138Z,1.23
2019-02-12T21:47:51.711Z,1.10
2019-02-12T21:50:20.358Z,0.80
2019-02-12T21:52:49.057Z,1.10
2019-02-12T21:55:20.755Z,1.00
2019-02-12T21:57:49.514Z,1.00
2019-02-12T22:00:37.436Z,1.20
2019-02-12T22:03:06.014Z,1.03
2019-02-12T22:05:34.650Z,1.43
2019-02-12T22:08:03.238Z,1.10
2019-02-12T22:10:31.870Z,1.20
2019-02-12T22:13:00.446Z,1.10
2019-02-12T22:15:29.082Z,1.10
2019-02-12T22:17:57.667Z,1.10
2019-02-12T22:20:26.230Z,0.90
2019-02-12T22:22:54.802Z,1.00
2019-02-12T22:25:23.438Z,0.97
2019-02-12T22:27:52.003Z,0.90
2019-02-12T22:30:24.926Z,0.93
2019-02-12T22:32:53.557Z,0.93
2019-02-12T22:35:22.204Z,1.00
2019-02-12T22:37:50.906Z,0.80
2019-02-12T22:40:19.549Z,0.80
2019-02-12T22:42:48.121Z,1.40
2019-02-12T22:45:19.225Z,0.93
2019-02-12T22:47:47.887Z,0.90
2019-02-12T22:50:16.647Z,1.00
2019-02-12T22:52:45.209Z,0.87
2019-02-12T22:55:13.914Z,0.80
2019-02-12T22:57:48.922Z,0.90
2019-02-12T23:00:22.911Z,0.90
2019-02-12T23:02:51.634Z,0.73
2019-02-12T23:05:20.199Z,0.97
2019-02-12T23:07:48.843Z,1.30
2019-02-12T23:10:17.546Z,0.97
2019-02-12T23:12:46.122Z,0.77
2019-02-12T23:15:14.687Z,1.10
2019-02-12T23:17:43.321Z,1.03
2019-02-12T23:20:11.893Z,1.27
2019-02-12T23:22:40.454Z,1.53
2019-02-12T23:25:09.269Z,1.53
2019-02-12T23:27:37.902Z,1.50
2019-02-12T23:30:09.100Z,1.70
2019-02-12T23:32:37.734Z,1.87
2019-02-12T23:35:06.850Z,1.70
2019-02-12T23:37:35.415Z,2.20
2019-02-12T23:40:04.846Z,1.67
2019-02-12T23:42:33.429Z,2.00
2019-02-12T23:45:02.011Z,2.07
2019-02-12T23:47:30.589Z,2.10
2019-02-12T23:49:59.146Z,1.57
2019-02-12T23:52:27.719Z,2.30
2019-02-12T23:54:56.350Z,2.40
2019-02-12T23:57:24.925Z,1.77
2019-02-12T23:59:53.490Z,2.33
